sensor_id;sensor_type;location;lat;lon;timestamp;temperature;humidity
9201;DHT22;4635;48.686;9.008;2023-02-28T00:00:51;-2.60;1.00
9201;DHT22;4635;48.686;9.008;2023-02-28T00:03:21;-2.70;1.00
9201;DHT22;4635;48.686;9.008;2023-02-28T00:05:50;-2.70;25.80
9201;DHT22;4635;48.686;9.008;2023-02-28T00:08:20;-2.70;99.90
9201;DHT22;4635;48.686;9.008;2023-02-28T00:10:49;-2.80;99.90
9201;DHT22;4635;48.686;9.008;2023-02-28T00:13:22;-2.80;99.90
9201;DHT22;4635;48.686;9.008;2023-02-28T00:15:58;-2.80;99.90
9201;DHT22;4635;48.686;9.008;2023-02-28T00:18:28;-2.80;99.90
9201;DHT22;4635;48.686;9.008;2023-02-28T00:20:57;-2.80;99.90
9201;DHT22;4635;48.686;9.008;2023-02-28T00:23:27;-2.80;99.90
9201;DHT22;4635;48.686;9.008;2023-02-28T00:25:56;-2.90;99.90
9201;DHT22;4635;48.686;9.008;2023-02-28T00:28:29;-2.90;99.90
9201;DHT22;4635;48.686;9.008;2023-02-28T00:31:01;-2.90;99.90
9201;DHT22;4635;48.686;9.008;2023-02-28T00:33:33;-3.00;1.00
9201;DHT22;4635;48.686;9.008;2023-02-28T00:36:07;-3.00;1.00
9201;DHT22;4635;48.686;9.008;2023-02-28T00:38:37;-3.00;1.00
9201;DHT22;4635;48.686;9.008;2023-02-28T00:41:07;-3.00;1.00
9201;DHT22;4635;48.686;9.008;2023-02-28T00:43:44;-3.00;1.00
9201;DHT22;4635;48.686;9.008;2023-02-28T00:46:13;-3.10;1.00
9201;DHT22;4635;48.686;9.008;2023-02-28T00:48:42;-3.10;1.00
9201;DHT22;4635;48.686;9.008;2023-02-28T00:51:11;-3.10;35.80
9201;DHT22;4635;48.686;9.008;2023-02-28T00:53:47;-3.10;86.00
9201;DHT22;4635;48.686;9.008;2023-02-28T00:56:24;-3.10;99.90
9201;DHT22;4635;48.686;9.008;2023-02-28T00:58:55;-3.10;9.00
9201;DHT22;4635;48.686;9.008;2023-02-28T01:01:24;-3.20;99.90
9201;DHT22;4635;48.686;9.008;2023-02-28T01:03:53;-3.20;99.90
9201;DHT22;4635;48.686;9.008;2023-02-28T01:06:23;-3.30;99.90
9201;DHT22;4635;48.686;9.008;2023-02-28T01:08:52;-3.20;1.00
9201;DHT22;4635;48.686;9.008;2023-02-28T01:11:23;-3.20;1.00
9201;DHT22;4635;48.686;9.008;2023-02-28T01:13:54;-3.30;1.00
9201;DHT22;4635;48.686;9.008;2023-02-28T01:16:23;-3.30;99.90
9201;DHT22;4635;48.686;9.008;2023-02-28T01:18:52;-3.30;1.00
9201;DHT22;4635;48.686;9.008;2023-02-28T01:21:21;-3.30;1.00
9201;DHT22;4635;48.686;9.008;2023-02-28T01:23:50;-3.10;1.00
9201;DHT22;4635;48.686;9.008;2023-02-28T01:26:20;-3.30;1.00
9201;DHT22;4635;48.686;9.008;2023-02-28T01:28:50;-3.30;1.00
9201;DHT22;4635;48.686;9.008;2023-02-28T01:31:22;-3.30;99.90
9201;DHT22;4635;48.686;9.008;2023-02-28T01:33:52;-3.30;1.00
9201;DHT22;4635;48.686;9.008;2023-02-28T01:36:22;-3.30;1.00
9201;DHT22;4635;48.686;9.008;2023-02-28T01:38:53;-3.30;1.00
9201;DHT22;4635;48.686;9.008;2023-02-28T01:41:23;-3.40;1.00
9201;DHT22;4635;48.686;9.008;2023-02-28T01:43:53;-3.40;99.90
9201;DHT22;4635;48.686;9.008;2023-02-28T01:46:26;-3.40;99.90
9201;DHT22;4635;48.686;9.008;2023-02-28T01:48:56;-3.40;1.00
9201;DHT22;4635;48.686;9.008;2023-02-28T01:51:28;-3.40;1.00
9201;DHT22;4635;48.686;9.008;2023-02-28T01:53:59;-3.40;1.00
9201;DHT22;4635;48.686;9.008;2023-02-28T01:56:29;-3.40;1.00
9201;DHT22;4635;48.686;9.008;2023-02-28T01:59:01;-3.40;1.00
9201;DHT22;4635;48.686;9.008;2023-02-28T02:01:34;-3.40;1.00
9201;DHT22;4635;48.686;9.008;2023-02-28T02:04:03;-3.40;1.00
9201;DHT22;4635;48.686;9.008;2023-02-28T02:06:34;-3.40;1.00
9201;DHT22;4635;48.686;9.008;2023-02-28T02:09:04;-3.40;99.90
9201;DHT22;4635;48.686;9.008;2023-02-28T02:11:34;-3.40;99.90
9201;DHT22;4635;48.686;9.008;2023-02-28T02:14:08;-3.40;1.00
9201;DHT22;4635;48.686;9.008;2023-02-28T02:16:44;-3.40;99.90
9201;DHT22;4635;48.686;9.008;2023-02-28T02:19:23;-3.40;99.90
9201;DHT22;4635;48.686;9.008;2023-02-28T02:22:07;-3.50;99.90
9201;DHT22;4635;48.686;9.008;2023-02-28T02:24:54;-3.50;1.00
9201;DHT22;4635;48.686;9.008;2023-02-28T02:27:32;-3.40;1.00
9201;DHT22;4635;48.686;9.008;2023-02-28T02:30:12;-3.50;1.00
9201;DHT22;4635;48.686;9.008;2023-02-28T02:35:31;-3.50;99.90
9201;DHT22;4635;48.686;9.008;2023-02-28T02:38:05;-3.50;99.90
9201;DHT22;4635;48.686;9.008;2023-02-28T02:40:40;-3.50;1.00
9201;DHT22;4635;48.686;9.008;2023-02-28T02:43:13;-3.50;1.00
9201;DHT22;4635;48.686;9.008;2023-02-28T02:45:45;-3.40;1.00
9201;DHT22;4635;48.686;9.008;2023-02-28T02:48:17;-3.40;1.00
9201;DHT22;4635;48.686;9.008;2023-02-28T02:50:52;-3.40;1.00
9201;DHT22;4635;48.686;9.008;2023-02-28T02:53:24;-3.30;1.00
9201;DHT22;4635;48.686;9.008;2023-02-28T02:55:53;-3.30;1.00
9201;DHT22;4635;48.686;9.008;2023-02-28T02:58:24;-3.40;1.00
9201;DHT22;4635;48.686;9.008;2023-02-28T03:00:55;-3.30;1.00
9201;DHT22;4635;48.686;9.008;2023-02-28T03:03:27;-3.20;1.00
9201;DHT22;4635;48.686;9.008;2023-02-28T03:05:59;-3.20;1.00
9201;DHT22;4635;48.686;9.008;2023-02-28T03:08:29;-3.00;1.00
9201;DHT22;4635;48.686;9.008;2023-02-28T03:11:02;-3.20;1.00
9201;DHT22;4635;48.686;9.008;2023-02-28T03:13:51;-3.20;32.40
9201;DHT22;4635;48.686;9.008;2023-02-28T03:16:29;-3.20;1.00
9201;DHT22;4635;48.686;9.008;2023-02-28T03:19:09;-3.10;1.00
9201;DHT22;4635;48.686;9.008;2023-02-28T03:21:43;-3.10;99.90
9201;DHT22;4635;48.686;9.008;2023-02-28T03:24:16;-3.00;1.00
9201;DHT22;4635;48.686;9.008;2023-02-28T03:26:52;-3.10;99.90
9201;DHT22;4635;48.686;9.008;2023-02-28T03:29:27;-3.10;99.90
9201;DHT22;4635;48.686;9.008;2023-02-28T03:32:02;-3.20;99.90
9201;DHT22;4635;48.686;9.008;2023-02-28T03:34:33;-3.10;1.00
9201;DHT22;4635;48.686;9.008;2023-02-28T03:37:08;-3.10;1.00
9201;DHT22;4635;48.686;9.008;2023-02-28T03:39:40;-3.10;99.90
9201;DHT22;4635;48.686;9.008;2023-02-28T03:42:11;-3.10;1.00
9201;DHT22;4635;48.686;9.008;2023-02-28T03:44:42;-3.10;1.00
9201;DHT22;4635;48.686;9.008;2023-02-28T03:47:16;-3.10;99.90
9201;DHT22;4635;48.686;9.008;2023-02-28T03:49:47;-3.00;1.00
9201;DHT22;4635;48.686;9.008;2023-02-28T03:52:22;-3.00;99.90
9201;DHT22;4635;48.686;9.008;2023-02-28T03:54:56;-3.10;1.00
9201;DHT22;4635;48.686;9.008;2023-02-28T03:57:33;-3.00;1.00
9201;DHT22;4635;48.686;9.008;2023-02-28T04:00:05;-3.10;1.00
9201;DHT22;4635;48.686;9.008;2023-02-28T04:02:36;-3.00;99.90
9201;DHT22;4635;48.686;9.008;2023-02-28T04:05:05;-3.00;1.00
9201;DHT22;4635;48.686;9.008;2023-02-28T04:07:37;-3.10;99.90
9201;DHT22;4635;48.686;9.008;2023-02-28T04:10:08;-3.10;1.00
9201;DHT22;4635;48.686;9.008;2023-02-28T04:12:38;-3.40;1.00
9201;DHT22;4635;48.686;9.008;2023-02-28T04:15:08;-3.10;99.90
9201;DHT22;4635;48.686;9.008;2023-02-28T04:17:41;-3.10;1.00
9201;DHT22;4635;48.686;9.008;2023-02-28T04:20:16;-3.00;1.00
9201;DHT22;4635;48.686;9.008;2023-02-28T04:23:00;-2.90;1.00
9201;DHT22;4635;48.686;9.008;2023-02-28T04:25:35;-2.90;1.00
9201;DHT22;4635;48.686;9.008;2023-02-28T04:28:06;-3.00;1.00
9201;DHT22;4635;48.686;9.008;2023-02-28T04:30:36;-3.10;1.00
9201;DHT22;4635;48.686;9.008;2023-02-28T04:33:07;-3.00;1.00
9201;DHT22;4635;48.686;9.008;2023-02-28T04:35:37;-3.00;99.90
9201;DHT22;4635;48.686;9.008;2023-02-28T04:38:08;-3.00;99.90
9201;DHT22;4635;48.686;9.008;2023-02-28T04:40:39;-3.00;1.00
9201;DHT22;4635;48.686;9.008;2023-02-28T04:43:08;-3.00;1.00
9201;DHT22;4635;48.686;9.008;2023-02-28T04:45:37;-3.00;1.00
9201;DHT22;4635;48.686;9.008;2023-02-28T04:48:06;-3.00;1.00
9201;DHT22;4635;48.686;9.008;2023-02-28T04:50:36;-3.00;1.00
9201;DHT22;4635;48.686;9.008;2023-02-28T04:53:05;-3.00;1.00
9201;DHT22;4635;48.686;9.008;2023-02-28T04:55:37;-3.00;1.00
9201;DHT22;4635;48.686;9.008;2023-02-28T04:58:07;-3.00;1.00
9201;DHT22;4635;48.686;9.008;2023-02-28T05:00:37;-3.00;99.90
9201;DHT22;4635;48.686;9.008;2023-02-28T05:03:07;-3.00;99.90
9201;DHT22;4635;48.686;9.008;2023-02-28T05:05:36;-3.00;1.00
9201;DHT22;4635;48.686;9.008;2023-02-28T05:08:05;-3.00;1.00
9201;DHT22;4635;48.686;9.008;2023-02-28T05:10:34;-3.00;1.00
9201;DHT22;4635;48.686;9.008;2023-02-28T05:13:08;-2.90;1.00
9201;DHT22;4635;48.686;9.008;2023-02-28T05:15:38;-2.90;1.00
9201;DHT22;4635;48.686;9.008;2023-02-28T05:18:08;-2.90;99.90
9201;DHT22;4635;48.686;9.008;2023-02-28T05:20:38;-2.90;99.90
9201;DHT22;4635;48.686;9.008;2023-02-28T05:23:11;-2.90;99.90
9201;DHT22;4635;48.686;9.008;2023-02-28T05:25:41;-2.90;1.00
9201;DHT22;4635;48.686;9.008;2023-02-28T05:28:16;-2.90;99.90
9201;DHT22;4635;48.686;9.008;2023-02-28T05:30:47;-2.90;99.90
9201;DHT22;4635;48.686;9.008;2023-02-28T05:33:17;-3.00;1.00
9201;DHT22;4635;48.686;9.008;2023-02-28T05:35:48;-2.90;1.00
9201;DHT22;4635;48.686;9.008;2023-02-28T05:38:20;-2.90;1.00
9201;DHT22;4635;48.686;9.008;2023-02-28T05:40:50;-2.90;1.00
9201;DHT22;4635;48.686;9.008;2023-02-28T05:43:29;-2.90;1.00
9201;DHT22;4635;48.686;9.008;2023-02-28T05:46:04;-2.90;11.00
9201;DHT22;4635;48.686;9.008;2023-02-28T05:48:37;-2.90;99.90
9201;DHT22;4635;48.686;9.008;2023-02-28T05:51:15;-2.90;1.00
9201;DHT22;4635;48.686;9.008;2023-02-28T05:53:47;-3.00;1.00
9201;DHT22;4635;48.686;9.008;2023-02-28T05:56:22;-3.00;99.90
9201;DHT22;4635;48.686;9.008;2023-02-28T05:58:55;-2.90;99.90
9201;DHT22;4635;48.686;9.008;2023-02-28T06:01:32;-2.90;60.40
9201;DHT22;4635;48.686;9.008;2023-02-28T06:04:15;-2.90;1.00
9201;DHT22;4635;48.686;9.008;2023-02-28T06:07:19;-2.80;99.90
9201;DHT22;4635;48.686;9.008;2023-02-28T06:10:01;-2.80;99.90
9201;DHT22;4635;48.686;9.008;2023-02-28T06:12:32;-2.80;1.00
9201;DHT22;4635;48.686;9.008;2023-02-28T06:15:04;-2.90;1.00
9201;DHT22;4635;48.686;9.008;2023-02-28T06:17:34;-2.90;1.00
9201;DHT22;4635;48.686;9.008;2023-02-28T06:20:07;-2.80;99.90
9201;DHT22;4635;48.686;9.008;2023-02-28T06:22:51;-2.90;99.90
9201;DHT22;4635;48.686;9.008;2023-02-28T06:25:29;-2.40;1.00
9201;DHT22;4635;48.686;9.008;2023-02-28T06:28:03;-2.90;1.00
9201;DHT22;4635;48.686;9.008;2023-02-28T06:31:48;-2.90;1.00
9201;DHT22;4635;48.686;9.008;2023-02-28T06:33:47;-2.90;1.00
9201;DHT22;4635;48.686;9.008;2023-02-28T06:36:37;-2.90;1.00
9201;DHT22;4635;48.686;9.008;2023-02-28T06:42:20;-2.90;1.00
9201;DHT22;4635;48.686;9.008;2023-02-28T06:44:59;-2.80;1.00
9201;DHT22;4635;48.686;9.008;2023-02-28T06:47:42;-2.80;1.00
9201;DHT22;4635;48.686;9.008;2023-02-28T06:50:19;-2.70;1.00
9201;DHT22;4635;48.686;9.008;2023-02-28T06:53:14;-2.70;1.00
9201;DHT22;4635;48.686;9.008;2023-02-28T06:56:02;-2.60;1.00
9201;DHT22;4635;48.686;9.008;2023-02-28T06:58:56;-2.70;1.00
9201;DHT22;4635;48.686;9.008;2023-02-28T07:01:35;-2.70;1.00
9201;DHT22;4635;48.686;9.008;2023-02-28T07:04:38;-2.60;22.30
9201;DHT22;4635;48.686;9.008;2023-02-28T07:07:29;-2.60;1.00
9201;DHT22;4635;48.686;9.008;2023-02-28T07:10:12;-2.60;1.00
9201;DHT22;4635;48.686;9.008;2023-02-28T07:12:52;-2.50;6.40
9201;DHT22;4635;48.686;9.008;2023-02-28T07:15:38;-2.60;42.00
9201;DHT22;4635;48.686;9.008;2023-02-28T07:18:17;-2.50;65.50
9201;DHT22;4635;48.686;9.008;2023-02-28T07:21:06;-2.40;52.10
9201;DHT22;4635;48.686;9.008;2023-02-28T07:23:38;-2.50;53.70
9201;DHT22;4635;48.686;9.008;2023-02-28T07:26:15;-2.40;78.50
9201;DHT22;4635;48.686;9.008;2023-02-28T07:28:52;-2.40;79.00
9201;DHT22;4635;48.686;9.008;2023-02-28T07:34:50;-2.00;84.00
9201;DHT22;4635;48.686;9.008;2023-02-28T07:37:25;-2.30;98.90
9201;DHT22;4635;48.686;9.008;2023-02-28T07:40:09;-2.00;99.90
9201;DHT22;4635;48.686;9.008;2023-02-28T07:42:59;-2.30;94.80
9201;DHT22;4635;48.686;9.008;2023-02-28T07:45:45;-2.30;95.60
9201;DHT22;4635;48.686;9.008;2023-02-28T07:48:30;-2.10;98.30
9201;DHT22;4635;48.686;9.008;2023-02-28T07:51:14;-2.20;95.20
9201;DHT22;4635;48.686;9.008;2023-02-28T07:53:57;-2.20;94.80
9201;DHT22;4635;48.686;9.008;2023-02-28T07:56:51;-2.10;90.90
9201;DHT22;4635;48.686;9.008;2023-02-28T07:59:23;-2.10;91.70
9201;DHT22;4635;48.686;9.008;2023-02-28T08:01:58;-2.00;89.50
9201;DHT22;4635;48.686;9.008;2023-02-28T08:04:37;-2.10;81.70
9201;DHT22;4635;48.686;9.008;2023-02-28T08:07:25;-2.00;82.60
9201;DHT22;4635;48.686;9.008;2023-02-28T08:09:59;-2.10;81.50
9201;DHT22;4635;48.686;9.008;2023-02-28T08:16:32;-2.00;76.80
9201;DHT22;4635;48.686;9.008;2023-02-28T08:18:59;-2.00;75.80
9201;DHT22;4635;48.686;9.008;2023-02-28T08:24:55;-2.00;73.50
9201;DHT22;4635;48.686;9.008;2023-02-28T08:27:33;-2.00;74.40
9201;DHT22;4635;48.686;9.008;2023-02-28T08:30:08;-1.90;72.10
9201;DHT22;4635;48.686;9.008;2023-02-28T08:32:56;-1.80;68.40
9201;DHT22;4635;48.686;9.008;2023-02-28T08:35:47;-1.90;67.30
9201;DHT22;4635;48.686;9.008;2023-02-28T08:38:47;-1.80;67.30
9201;DHT22;4635;48.686;9.008;2023-02-28T08:41:41;-1.90;67.40
9201;DHT22;4635;48.686;9.008;2023-02-28T08:44:30;-1.80;74.30
9201;DHT22;4635;48.686;9.008;2023-02-28T08:47:21;-1.70;65.40
9201;DHT22;4635;48.686;9.008;2023-02-28T08:50:06;-1.70;59.50
9201;DHT22;4635;48.686;9.008;2023-02-28T08:52:54;-1.70;65.50
9201;DHT22;4635;48.686;9.008;2023-02-28T08:55:40;-1.60;61.30
9201;DHT22;4635;48.686;9.008;2023-02-28T09:01:15;-1.70;62.60
9201;DHT22;4635;48.686;9.008;2023-02-28T09:03:53;-1.80;65.10
9201;DHT22;4635;48.686;9.008;2023-02-28T09:06:27;-1.70;67.50
9201;DHT22;4635;48.686;9.008;2023-02-28T09:09:10;-1.60;62.10
9201;DHT22;4635;48.686;9.008;2023-02-28T09:11:49;-1.60;59.70
9201;DHT22;4635;48.686;9.008;2023-02-28T09:14:45;-1.60;62.40
9201;DHT22;4635;48.686;9.008;2023-02-28T09:17:50;-1.70;63.20
9201;DHT22;4635;48.686;9.008;2023-02-28T09:20:32;-1.70;65.90
9201;DHT22;4635;48.686;9.008;2023-02-28T09:23:18;-1.60;61.60
9201;DHT22;4635;48.686;9.008;2023-02-28T09:26:03;-1.40;58.40
9201;DHT22;4635;48.686;9.008;2023-02-28T09:28:50;-1.50;55.30
9201;DHT22;4635;48.686;9.008;2023-02-28T09:31:37;-1.60;60.80
9201;DHT22;4635;48.686;9.008;2023-02-28T09:34:26;-1.40;61.70
9201;DHT22;4635;48.686;9.008;2023-02-28T09:37:05;-1.40;48.90
9201;DHT22;4635;48.686;9.008;2023-02-28T09:39:47;-1.50;56.90
9201;DHT22;4635;48.686;9.008;2023-02-28T09:42:32;-1.50;55.90
9201;DHT22;4635;48.686;9.008;2023-02-28T09:45:23;-1.50;58.80
9201;DHT22;4635;48.686;9.008;2023-02-28T09:48:20;-1.50;58.20
9201;DHT22;4635;48.686;9.008;2023-02-28T10:21:09;-1.10;42.20
9201;DHT22;4635;48.686;9.008;2023-02-28T10:30:05;-0.90;35.40
9201;DHT22;4635;48.686;9.008;2023-02-28T10:32:54;-0.60;29.20
9201;DHT22;4635;48.686;9.008;2023-02-28T10:35:56;-0.60;26.10
9201;DHT22;4635;48.686;9.008;2023-02-28T17:24:55;2.00;1.00
9201;DHT22;4635;48.686;9.008;2023-02-28T17:37:47;1.80;1.00
9201;DHT22;4635;48.686;9.008;2023-02-28T17:40:28;1.80;1.00
9201;DHT22;4635;48.686;9.008;2023-02-28T17:43:17;1.90;1.00
9201;DHT22;4635;48.686;9.008;2023-02-28T17:45:55;1.80;1.00
9201;DHT22;4635;48.686;9.008;2023-02-28T17:48:32;1.70;1.00
9201;DHT22;4635;48.686;9.008;2023-02-28T17:51:09;1.70;1.00
9201;DHT22;4635;48.686;9.008;2023-02-28T18:02:59;1.50;1.00
9201;DHT22;4635;48.686;9.008;2023-02-28T18:05:46;1.50;1.00
9201;DHT22;4635;48.686;9.008;2023-02-28T18:08:30;1.40;1.00
9201;DHT22;4635;48.686;9.008;2023-02-28T18:11:16;1.40;1.00
9201;DHT22;4635;48.686;9.008;2023-02-28T18:14:02;1.40;1.00
9201;DHT22;4635;48.686;9.008;2023-02-28T18:17:01;1.30;1.00
9201;DHT22;4635;48.686;9.008;2023-02-28T18:34:35;1.10;3.80
9201;DHT22;4635;48.686;9.008;2023-02-28T18:37:16;1.10;4.70
9201;DHT22;4635;48.686;9.008;2023-02-28T18:39:58;1.00;6.50
9201;DHT22;4635;48.686;9.008;2023-02-28T18:42:46;1.00;6.30
9201;DHT22;4635;48.686;9.008;2023-02-28T18:45:43;1.00;7.00
9201;DHT22;4635;48.686;9.008;2023-02-28T18:48:21;0.90;7.40
9201;DHT22;4635;48.686;9.008;2023-02-28T19:00:08;0.60;17.10
9201;DHT22;4635;48.686;9.008;2023-02-28T19:03:04;0.60;18.60
9201;DHT22;4635;48.686;9.008;2023-02-28T19:06:06;0.50;19.30
9201;DHT22;4635;48.686;9.008;2023-02-28T19:11:43;0.60;17.60
9201;DHT22;4635;48.686;9.008;2023-02-28T19:14:31;0.60;17.60
9201;DHT22;4635;48.686;9.008;2023-02-28T19:20:10;0.50;19.40
9201;DHT22;4635;48.686;9.008;2023-02-28T19:22:48;0.50;20.00
9201;DHT22;4635;48.686;9.008;2023-02-28T19:25:35;0.50;20.90
9201;DHT22;4635;48.686;9.008;2023-02-28T19:28:25;0.40;22.90
9201;DHT22;4635;48.686;9.008;2023-02-28T19:31:14;0.50;22.40
9201;DHT22;4635;48.686;9.008;2023-02-28T19:34:00;0.50;23.20
9201;DHT22;4635;48.686;9.008;2023-02-28T19:36:39;0.40;23.70
9201;DHT22;4635;48.686;9.008;2023-02-28T19:39:21;0.40;25.30
9201;DHT22;4635;48.686;9.008;2023-02-28T19:41:52;0.30;27.70
9201;DHT22;4635;48.686;9.008;2023-02-28T19:47:20;0.10;33.30
9201;DHT22;4635;48.686;9.008;2023-02-28T19:50:03;0.10;36.10
9201;DHT22;4635;48.686;9.008;2023-02-28T19:58:26;-0.10;42.20
9201;DHT22;4635;48.686;9.008;2023-02-28T20:01:04;-0.10;42.00
9201;DHT22;4635;48.686;9.008;2023-02-28T20:03:48;0.00;41.10
9201;DHT22;4635;48.686;9.008;2023-02-28T20:06:34;0.00;39.40
9201;DHT22;4635;48.686;9.008;2023-02-28T20:09:23;0.00;40.00
9201;DHT22;4635;48.686;9.008;2023-02-28T20:11:54;0.00;41.30
9201;DHT22;4635;48.686;9.008;2023-02-28T20:14:34;-0.10;43.70
9201;DHT22;4635;48.686;9.008;2023-02-28T20:17:05;-0.10;44.60
9201;DHT22;4635;48.686;9.008;2023-02-28T20:19:42;-0.20;44.70
9201;DHT22;4635;48.686;9.008;2023-02-28T20:22:24;-0.20;44.90
9201;DHT22;4635;48.686;9.008;2023-02-28T20:25:01;-0.20;45.80
9201;DHT22;4635;48.686;9.008;2023-02-28T20:27:35;-0.30;46.90
9201;DHT22;4635;48.686;9.008;2023-02-28T20:30:18;-0.20;47.10
9201;DHT22;4635;48.686;9.008;2023-02-28T20:33:01;-0.30;49.40
9201;DHT22;4635;48.686;9.008;2023-02-28T20:35:36;-0.40;50.80
9201;DHT22;4635;48.686;9.008;2023-02-28T20:38:07;-0.40;51.10
9201;DHT22;4635;48.686;9.008;2023-02-28T20:40:49;-0.30;50.20
9201;DHT22;4635;48.686;9.008;2023-02-28T20:43:32;-0.30;50.60
9201;DHT22;4635;48.686;9.008;2023-02-28T20:46:24;-0.30;51.70
9201;DHT22;4635;48.686;9.008;2023-02-28T20:49:09;-0.20;51.90
9201;DHT22;4635;48.686;9.008;2023-02-28T20:51:44;-0.40;51.40
9201;DHT22;4635;48.686;9.008;2023-02-28T20:54:23;-0.40;51.80
9201;DHT22;4635;48.686;9.008;2023-02-28T20:57:14;-0.40;52.60
9201;DHT22;4635;48.686;9.008;2023-02-28T20:59:53;-0.50;54.40
9201;DHT22;4635;48.686;9.008;2023-02-28T21:02:25;-0.50;55.70
9201;DHT22;4635;48.686;9.008;2023-02-28T21:04:59;-0.50;56.90
9201;DHT22;4635;48.686;9.008;2023-02-28T21:07:30;-0.60;57.80
9201;DHT22;4635;48.686;9.008;2023-02-28T21:10:10;-0.60;60.00
9201;DHT22;4635;48.686;9.008;2023-02-28T21:12:55;-0.80;63.20
9201;DHT22;4635;48.686;9.008;2023-02-28T21:15:25;-0.80;66.70
9201;DHT22;4635;48.686;9.008;2023-02-28T21:18:09;-0.80;72.40
9201;DHT22;4635;48.686;9.008;2023-02-28T21:20:37;-0.80;71.80
9201;DHT22;4635;48.686;9.008;2023-02-28T21:23:12;-0.80;70.60
9201;DHT22;4635;48.686;9.008;2023-02-28T21:25:45;-0.80;69.40
9201;DHT22;4635;48.686;9.008;2023-02-28T21:28:27;-0.90;71.90
9201;DHT22;4635;48.686;9.008;2023-02-28T21:31:01;-0.90;74.80
9201;DHT22;4635;48.686;9.008;2023-02-28T21:33:46;-0.90;76.60
9201;DHT22;4635;48.686;9.008;2023-02-28T21:36:21;-0.90;77.20
9201;DHT22;4635;48.686;9.008;2023-02-28T21:39:07;-1.00;77.00
9201;DHT22;4635;48.686;9.008;2023-02-28T21:41:40;-1.00;80.30
9201;DHT22;4635;48.686;9.008;2023-02-28T21:44:27;-1.00;77.60
9201;DHT22;4635;48.686;9.008;2023-02-28T21:46:59;-1.00;77.80
9201;DHT22;4635;48.686;9.008;2023-02-28T21:49:45;-1.10;79.40
9201;DHT22;4635;48.686;9.008;2023-02-28T21:52:21;-1.10;84.50
9201;DHT22;4635;48.686;9.008;2023-02-28T21:54:52;-1.10;79.80
9201;DHT22;4635;48.686;9.008;2023-02-28T21:57:22;-1.10;79.20
9201;DHT22;4635;48.686;9.008;2023-02-28T22:00:03;-1.10;80.20
9201;DHT22;4635;48.686;9.008;2023-02-28T22:05:33;-1.10;86.60
9201;DHT22;4635;48.686;9.008;2023-02-28T22:08:13;-1.20;86.30
9201;DHT22;4635;48.686;9.008;2023-02-28T22:10:58;-1.10;82.70
9201;DHT22;4635;48.686;9.008;2023-02-28T22:13:38;-1.10;82.30
9201;DHT22;4635;48.686;9.008;2023-02-28T22:16:14;-1.10;83.50
9201;DHT22;4635;48.686;9.008;2023-02-28T22:18:46;-1.20;82.90
9201;DHT22;4635;48.686;9.008;2023-02-28T22:21:21;-1.20;82.90
9201;DHT22;4635;48.686;9.008;2023-02-28T22:23:57;-1.20;83.90
9201;DHT22;4635;48.686;9.008;2023-02-28T22:26:31;-1.10;83.90
9201;DHT22;4635;48.686;9.008;2023-02-28T22:29:04;-1.20;85.30
9201;DHT22;4635;48.686;9.008;2023-02-28T22:31:37;-1.20;86.40
9201;DHT22;4635;48.686;9.008;2023-02-28T22:34:07;-1.20;85.70
9201;DHT22;4635;48.686;9.008;2023-02-28T22:36:43;-1.20;85.20
9201;DHT22;4635;48.686;9.008;2023-02-28T22:39:14;-1.30;85.10
9201;DHT22;4635;48.686;9.008;2023-02-28T22:41:50;-1.30;90.30
9201;DHT22;4635;48.686;9.008;2023-02-28T22:44:22;-1.30;89.60
9201;DHT22;4635;48.686;9.008;2023-02-28T22:46:53;-1.30;90.60
9201;DHT22;4635;48.686;9.008;2023-02-28T22:49:23;-1.30;90.60
9201;DHT22;4635;48.686;9.008;2023-02-28T22:51:57;-1.40;90.70
9201;DHT22;4635;48.686;9.008;2023-02-28T22:54:27;-1.40;91.60
9201;DHT22;4635;48.686;9.008;2023-02-28T22:57:01;-1.30;92.60
9201;DHT22;4635;48.686;9.008;2023-02-28T22:59:35;-1.50;93.20
9201;DHT22;4635;48.686;9.008;2023-02-28T23:02:17;-1.50;93.60
9201;DHT22;4635;48.686;9.008;2023-02-28T23:04:46;-1.40;93.40
9201;DHT22;4635;48.686;9.008;2023-02-28T23:07:33;-1.40;92.80
9201;DHT22;4635;48.686;9.008;2023-02-28T23:10:13;-1.40;92.90
9201;DHT22;4635;48.686;9.008;2023-02-28T23:12:47;-1.50;94.30
9201;DHT22;4635;48.686;9.008;2023-02-28T23:15:21;-1.50;97.30
9201;DHT22;4635;48.686;9.008;2023-02-28T23:17:55;-1.50;94.70
9201;DHT22;4635;48.686;9.008;2023-02-28T23:20:25;-1.50;96.30
9201;DHT22;4635;48.686;9.008;2023-02-28T23:23:04;-1.60;97.90
9201;DHT22;4635;48.686;9.008;2023-02-28T23:25:38;-1.60;98.10
9201;DHT22;4635;48.686;9.008;2023-02-28T23:28:19;-1.70;98.60
9201;DHT22;4635;48.686;9.008;2023-02-28T23:30:52;-1.70;99.90
9201;DHT22;4635;48.686;9.008;2023-02-28T23:33:24;-1.70;99.90
9201;DHT22;4635;48.686;9.008;2023-02-28T23:35:57;-1.70;99.90
9201;DHT22;4635;48.686;9.008;2023-02-28T23:38:45;-1.70;99.90
9201;DHT22;4635;48.686;9.008;2023-02-28T23:41:27;-1.70;99.10
9201;DHT22;4635;48.686;9.008;2023-02-28T23:43:58;-1.60;98.50
9201;DHT22;4635;48.686;9.008;2023-02-28T23:46:29;-1.70;99.50
9201;DHT22;4635;48.686;9.008;2023-02-28T23:48:59;-1.70;99.90
9201;DHT22;4635;48.686;9.008;2023-02-28T23:51:29;-1.70;99.90
9201;DHT22;4635;48.686;9.008;2023-02-28T23:54:06;-1.80;99.90
9201;DHT22;4635;48.686;9.008;2023-02-28T23:56:49;-1.80;99.90
9201;DHT22;4635;48.686;9.008;2023-02-28T23:59:20;-1.80;99.90
